Time;durP1;ratioP1;P1;durP2;ratioP2;P2;SDS_P1;SDS_P2;PMS_P1;PMS_P2;Temp;Humidity;BMP_temperature;BMP_pressure;BME280_temperature;BME280_humidity;BME280_pressure;Samples;Min_cycle;Max_cycle;Signal;HPM_P1;HPM_P2
2023/05/08 00:02:13;;;;;;;9.93;4.68;;;;;;;;;;10404425;28;20045;-74
2023/05/08 00:07:16;;;;;;;11.52;5.18;;;;;;;;;;10390683;28;20042;-74
2023/05/08 00:12:20;;;;;;;11.88;5.00;;;;;;;;;;10402477;28;20053;-75
2023/05/08 00:17:23;;;;;;;13.27;5.78;;;;;;;;;;10398526;28;20056;-74
2023/05/08 00:22:27;;;;;;;14.38;5.18;;;;;;;;;;10405425;28;20096;-75
2023/05/08 00:27:30;;;;;;;;;;;;;;;;;;10407952;28;20117;-74
2023/05/08 00:32:34;;;;;;;10.05;4.85;;;;;;;;;;10400611;28;19929;-74
2023/05/08 00:37:39;;;;;;;12.48;5.43;;;;;;;;;;10404210;28;20036;-74
2023/05/08 00:42:42;;;;;;;11.35;5.25;;;;;;;;;;10389541;28;20037;-75
2023/05/08 00:47:47;;;;;;;14.00;5.80;;;;;;;;;;10402549;28;20037;-75
2023/05/08 00:52:50;;;;;;;13.38;5.28;;;;;;;;;;10403215;28;20045;-78
2023/05/08 00:57:53;;;;;;;13.30;5.17;;;;;;;;;;10403835;28;20550;-76
2023/05/08 01:02:57;;;;;;;13.37;5.80;;;;;;;;;;10398014;28;20182;-76
2023/05/08 01:07:59;;;;;;;12.93;5.53;;;;;;;;;;10400767;28;20312;-76
2023/05/08 01:13:05;;;;;;;14.55;5.85;;;;;;;;;;10398791;28;20034;-75
2023/05/08 01:18:13;;;;;;;13.43;6.05;;;;;;;;;;10403002;28;20516;-77
2023/05/08 01:23:27;;;;;;;13.02;6.20;;;;;;;;;;10402273;28;20053;-76
2023/05/08 01:28:44;;;;;;;13.07;6.05;;;;;;;;;;10398977;28;20049;-75
2023/05/08 01:33:51;;;;;;;13.45;6.25;;;;;;;;;;10399617;28;20045;-74
2023/05/08 01:38:56;;;;;;;14.18;6.32;;;;;;;;;;10402079;28;20409;-74
2023/05/08 01:44:04;;;;;;;13.02;6.63;;;;;;;;;;10400692;28;20048;-74
2023/05/08 01:49:09;;;;;;;13.70;6.13;;;;;;;;;;10399628;28;20041;-75
2023/05/08 01:54:15;;;;;;;16.15;6.68;;;;;;;;;;10399104;28;20056;-75
2023/05/08 01:59:21;;;;;;;16.70;6.50;;;;;;;;;;10399476;28;20041;-76
2023/05/08 02:04:27;;;;;;;14.07;6.85;;;;;;;;;;10395355;28;20142;-75
2023/05/08 02:09:31;;;;;;;15.50;6.68;;;;;;;;;;10391009;28;20065;-75
2023/05/08 02:14:34;;;;;;;18.63;8.60;;;;;;;;;;10397711;28;20049;-74
2023/05/08 02:19:40;;;;;;;15.40;6.72;;;;;;;;;;10397561;28;20575;-75
2023/05/08 02:24:45;;;;;;;18.02;7.03;;;;;;;;;;10400675;28;20468;-75
2023/05/08 02:29:48;;;;;;;16.10;5.63;;;;;;;;;;10393819;28;20168;-75
2023/05/08 02:34:53;;;;;;;13.83;6.47;;;;;;;;;;10397629;28;20040;-74
2023/05/08 02:40:06;;;;;;;15.30;5.70;;;;;;;;;;10395253;28;20037;-74
2023/05/08 02:45:11;;;;;;;13.43;5.68;;;;;;;;;;10396120;28;20040;-77
2023/05/08 02:50:17;;;;;;;12.55;5.82;;;;;;;;;;10395035;28;20103;-76
2023/05/08 02:55:24;;;;;;;13.15;5.25;;;;;;;;;;10394880;28;20430;-74
2023/05/08 03:00:28;;;;;;;8.60;4.57;;;;;;;;;;10390311;28;20100;-75
2023/05/08 03:05:34;;;;;;;11.60;5.07;;;;;;;;;;10396822;28;20520;-74
2023/05/08 03:10:39;;;;;;;10.02;4.80;;;;;;;;;;10397930;28;20072;-75
2023/05/08 03:15:44;;;;;;;12.07;5.20;;;;;;;;;;10398643;28;20060;-76
2023/05/08 03:20:51;;;;;;;12.02;4.70;;;;;;;;;;10400421;28;20112;-77
2023/05/08 03:25:54;;;;;;;10.43;5.05;;;;;;;;;;10401524;28;20045;-77
2023/05/08 03:30:57;;;;;;;;;;;;;;;;;;10404594;28;20560;-76
2023/05/08 03:36:01;;;;;;;10.13;4.55;;;;;;;;;;10400504;28;19964;-75
2023/05/08 03:41:04;;;;;;;10.95;4.57;;;;;;;;;;10404165;28;20095;-75
2023/05/08 03:46:08;;;;;;;10.88;5.47;;;;;;;;;;10405987;28;20057;-76
2023/05/08 03:51:12;;;;;;;11.03;4.93;;;;;;;;;;10403720;28;20037;-75
2023/05/08 03:56:15;;;;;;;11.40;4.93;;;;;;;;;;10403075;28;20456;-74
2023/05/08 04:01:21;;;;;;;11.20;5.28;;;;;;;;;;10400152;28;20065;-76
2023/05/08 04:06:29;;;;;;;11.05;5.15;;;;;;;;;;10402282;28;20045;-77
2023/05/08 04:11:47;;;;;;;11.70;5.00;;;;;;;;;;10398186;28;20189;-75
2023/05/08 04:16:52;;;;;;;11.27;5.03;;;;;;;;;;10398576;28;20405;-74
2023/05/08 04:21:58;;;;;;;10.05;4.68;;;;;;;;;;10401186;28;20045;-76
2023/05/08 04:27:01;;;;;;;11.07;5.00;;;;;;;;;;10401828;28;20053;-76
2023/05/08 04:32:05;;;;;;;11.27;5.43;;;;;;;;;;10399681;28;20037;-76
2023/05/08 04:37:22;;;;;;;9.10;4.43;;;;;;;;;;10402799;28;20413;-75
2023/05/08 04:42:25;;;;;;;11.43;4.13;;;;;;;;;;10395962;28;20303;-75
2023/05/08 04:47:28;;;;;;;9.68;4.45;;;;;;;;;;10400151;28;20533;-74
2023/05/08 04:52:32;;;;;;;9.77;5.28;;;;;;;;;;10401934;28;20128;-76
2023/05/08 04:57:35;;;;;;;11.60;4.78;;;;;;;;;;10399026;28;20080;-77
2023/05/08 05:02:39;;;;;;;10.32;4.80;;;;;;;;;;10400067;28;20045;-76
2023/05/08 05:07:44;;;;;;;10.75;5.03;;;;;;;;;;10400282;28;20429;-76
2023/05/08 05:12:47;;;;;;;11.40;4.47;;;;;;;;;;10393502;28;20368;-77
2023/05/08 05:17:49;;;;;;;10.83;4.67;;;;;;;;;;10395850;28;20057;-76
2023/05/08 05:22:54;;;;;;;9.45;4.05;;;;;;;;;;10398533;28;20034;-75
2023/05/08 05:27:56;;;;;;;9.68;4.70;;;;;;;;;;10399645;28;20116;-74
2023/05/08 05:32:59;;;;;;;10.32;4.93;;;;;;;;;;10399485;28;20038;-75
2023/05/08 05:38:04;;;;;;;9.97;5.30;;;;;;;;;;10398928;28;20064;-77
2023/05/08 05:43:07;;;;;;;10.93;4.82;;;;;;;;;;10397601;28;20060;-75
2023/05/08 05:48:10;;;;;;;8.90;4.43;;;;;;;;;;10398835;28;20347;-74
2023/05/08 05:53:14;;;;;;;10.68;4.95;;;;;;;;;;10394984;28;20056;-75
2023/05/08 05:58:18;;;;;;;10.68;5.25;;;;;;;;;;10400958;28;20103;-75
2023/05/08 06:03:20;;;;;;;14.57;5.13;;;;;;;;;;10403359;28;20055;-76
2023/05/08 06:08:25;;;;;;;10.55;4.75;;;;;;;;;;10396546;28;20056;-76
2023/05/08 06:13:28;;;;;;;13.43;5.68;;;;;;;;;;10396169;28;20132;-74
2023/05/08 06:18:31;;;;;;;10.23;5.00;;;;;;;;;;10398566;28;20038;-75
2023/05/08 06:23:35;;;;;;;11.03;5.30;;;;;;;;;;10397787;28;20037;-76
2023/05/08 06:28:38;;;;;;;12.35;5.38;;;;;;;;;;10396128;28;20288;-77
2023/05/08 06:33:41;;;;;;;11.68;4.97;;;;;;;;;;10397567;28;20060;-77
2023/05/08 06:38:45;;;;;;;9.97;4.63;;;;;;;;;;10400383;28;20388;-76
2023/05/08 06:43:48;;;;;;;8.98;4.53;;;;;;;;;;10395177;28;20042;-77
2023/05/08 06:48:51;;;;;;;12.10;5.67;;;;;;;;;;10390681;28;20064;-76
2023/05/08 06:53:55;;;;;;;11.80;5.22;;;;;;;;;;10397642;28;20057;-75
2023/05/08 06:58:58;;;;;;;9.57;5.05;;;;;;;;;;10396700;28;20111;-77
2023/05/08 07:04:10;;;;;;;7.80;4.57;;;;;;;;;;10396532;28;20095;-77
2023/05/08 07:09:15;;;;;;;12.45;5.05;;;;;;;;;;10399899;28;20068;-77
2023/05/08 07:14:18;;;;;;;10.40;5.53;;;;;;;;;;10391109;28;20398;-80
2023/05/08 07:19:21;;;;;;;10.23;4.90;;;;;;;;;;10393221;28;20038;-76
2023/05/08 07:24:25;;;;;;;10.13;5.23;;;;;;;;;;10392688;28;20331;-76
2023/05/08 07:29:28;;;;;;;11.68;5.35;;;;;;;;;;10394879;28;20556;-76
2023/05/08 07:34:33;;;;;;;9.35;5.35;;;;;;;;;;10396694;28;20053;-76
2023/05/08 07:39:40;;;;;;;10.82;5.30;;;;;;;;;;10393771;28;20064;-79
2023/05/08 07:44:43;;;;;;;8.85;5.22;;;;;;;;;;10409383;28;20038;-76
2023/05/08 07:49:57;;;;;;;11.73;5.00;;;;;;;;;;10396218;28;20057;-76
2023/05/08 07:55:01;;;;;;;10.05;5.03;;;;;;;;;;10397585;28;20437;-76
2023/05/08 08:00:05;;;;;;;11.20;5.88;;;;;;;;;;10398860;28;20044;-76
2023/05/08 08:05:09;;;;;;;11.57;5.35;;;;;;;;;;10398187;28;20044;-76
2023/05/08 08:10:13;;;;;;;11.02;6.07;;;;;;;;;;10394834;28;20174;-76
2023/05/08 08:15:16;;;;;;;10.52;5.38;;;;;;;;;;10402490;28;20052;-76
2023/05/08 08:20:19;;;;;;;10.75;6.22;;;;;;;;;;10405438;28;20061;-76
2023/05/08 08:25:21;;;;;;;;;;;;;;;;;;10403627;28;20515;-76
2023/05/08 08:30:25;;;;;;;9.80;5.72;;;;;;;;;;10405253;28;19921;-77
2023/05/08 08:35:29;;;;;;;11.52;6.20;;;;;;;;;;10407585;28;20452;-77
2023/05/08 08:40:31;;;;;;;11.65;6.68;;;;;;;;;;10403310;28;20128;-75
2023/05/08 08:45:36;;;;;;;10.73;6.05;;;;;;;;;;10409396;28;20076;-76
2023/05/08 08:50:41;;;;;;;10.05;6.53;;;;;;;;;;10400495;28;20037;-77
2023/05/08 08:55:46;;;;;;;13.90;8.32;;;;;;;;;;10402232;28;20499;-76
2023/05/08 09:00:51;;;;;;;16.10;6.97;;;;;;;;;;10397482;28;20478;-76
2023/05/08 09:05:54;;;;;;;11.45;6.78;;;;;;;;;;10401609;28;20500;-75
2023/05/08 09:10:58;;;;;;;10.75;6.78;;;;;;;;;;10396167;28;20553;-78
2023/05/08 09:16:06;;;;;;;12.73;7.22;;;;;;;;;;10401940;28;20421;-76
2023/05/08 09:21:09;;;;;;;12.68;6.88;;;;;;;;;;10400473;28;20045;-77
2023/05/08 09:26:26;;;;;;;11.63;7.53;;;;;;;;;;10400779;28;20076;-77
2023/05/08 09:31:35;;;;;;;10.85;7.35;;;;;;;;;;10401592;28;20075;-77
2023/05/08 09:36:40;;;;;;;12.68;8.00;;;;;;;;;;10401419;28;20077;-77
2023/05/08 09:41:56;;;;;;;11.25;7.45;;;;;;;;;;10394669;28;20128;-78
2023/05/08 09:47:11;;;;;;;15.30;9.23;;;;;;;;;;10397255;28;20056;-77
2023/05/08 09:52:15;;;;;;;14.48;8.23;;;;;;;;;;10396400;28;20396;-76
2023/05/08 09:57:18;;;;;;;13.40;7.85;;;;;;;;;;10395618;28;20053;-76
2023/05/08 10:02:22;;;;;;;13.48;9.02;;;;;;;;;;10397909;28;20046;-77
2023/05/08 10:07:29;;;;;;;15.48;8.75;;;;;;;;;;10399216;28;20045;-78
2023/05/08 10:12:32;;;;;;;10.68;8.40;;;;;;;;;;10408905;28;20473;-77
2023/05/08 10:17:38;;;;;;;14.43;9.50;;;;;;;;;;10399654;28;20053;-77
2023/05/08 10:22:43;;;;;;;12.55;8.85;;;;;;;;;;10398423;28;20045;-76
2023/05/08 10:27:49;;;;;;;13.75;9.45;;;;;;;;;;10395394;28;20708;-79
2023/05/08 10:32:54;;;;;;;12.75;9.07;;;;;;;;;;10395437;28;20505;-77
2023/05/08 10:38:01;;;;;;;13.00;8.98;;;;;;;;;;10394733;28;20410;-76
2023/05/08 10:43:04;;;;;;;12.63;8.60;;;;;;;;;;10393520;28;20029;-76
2023/05/08 10:48:13;;;;;;;15.00;11.13;;;;;;;;;;10398893;28;20437;-77
2023/05/08 10:53:17;;;;;;;14.95;10.35;;;;;;;;;;10397106;28;20510;-77
2023/05/08 10:58:30;;;;;;;14.30;10.52;;;;;;;;;;10396342;28;20053;-77
2023/05/08 11:03:38;;;;;;;17.33;10.02;;;;;;;;;;10402212;28;20050;-77
2023/05/08 11:08:49;;;;;;;17.27;9.88;;;;;;;;;;10401704;28;20050;-77
2023/05/08 11:13:53;;;;;;;16.50;11.63;;;;;;;;;;10396215;28;20046;-78
2023/05/08 11:19:19;;;;;;;18.17;11.38;;;;;;;;;;10397338;28;20057;-77
2023/05/08 11:24:32;;;;;;;16.00;10.77;;;;;;;;;;10383587;28;20498;-78
2023/05/08 11:29:36;;;;;;;14.68;10.18;;;;;;;;;;10397439;28;20050;-76
2023/05/08 11:34:47;;;;;;;15.15;9.63;;;;;;;;;;10396134;28;20038;-76
2023/05/08 11:39:52;;;;;;;14.13;9.97;;;;;;;;;;10398697;28;20065;-76
2023/05/08 11:45:01;;;;;;;14.30;10.07;;;;;;;;;;10393604;28;20038;-77
2023/05/08 11:50:03;;;;;;;13.48;10.30;;;;;;;;;;10396961;28;20041;-78
2023/05/08 11:55:10;;;;;;;17.00;9.77;;;;;;;;;;10403474;28;20888;-78
2023/05/08 12:00:14;;;;;;;17.92;10.23;;;;;;;;;;10407163;28;20045;-77
2023/05/08 12:05:26;;;;;;;14.35;9.50;;;;;;;;;;10400561;28;20073;-77
2023/05/08 12:10:30;;;;;;;15.57;10.05;;;;;;;;;;10397158;28;20486;-77
2023/05/08 12:15:33;;;;;;;15.43;10.25;;;;;;;;;;10403011;28;20046;-79
2023/05/08 12:20:36;;;;;;;18.45;10.50;;;;;;;;;;10402555;28;20736;-78
2023/05/08 12:25:40;;;;;;;15.00;9.35;;;;;;;;;;10404413;28;20469;-79
2023/05/08 12:30:43;;;;;;;17.35;10.40;;;;;;;;;;10403692;28;20099;-78
2023/05/08 12:35:46;;;;;;;16.23;8.93;;;;;;;;;;10404858;28;20038;-78
2023/05/08 12:40:51;;;;;;;16.55;9.27;;;;;;;;;;10404858;28;20041;-77
2023/05/08 12:45:54;;;;;;;17.23;10.07;;;;;;;;;;10400694;28;20053;-77
2023/05/08 12:51:02;;;;;;;16.30;9.48;;;;;;;;;;10398816;28;20037;-77
2023/05/08 12:56:08;;;;;;;15.82;9.52;;;;;;;;;;10396821;28;20049;-78
2023/05/08 13:01:12;;;;;;;18.65;10.18;;;;;;;;;;10400501;28;20360;-78
2023/05/08 13:06:21;;;;;;;17.13;11.00;;;;;;;;;;10397876;28;20517;-79
2023/05/08 13:11:33;;;;;;;18.77;9.93;;;;;;;;;;10401267;28;20382;-78
2023/05/08 13:16:42;;;;;;;16.85;9.85;;;;;;;;;;10402536;28;20388;-78
2023/05/08 13:21:46;;;;;;;17.27;9.70;;;;;;;;;;10398245;28;20069;-77
2023/05/08 13:26:50;;;;;;;15.70;9.15;;;;;;;;;;10405340;28;20107;-79
2023/05/08 13:31:53;;;;;;;19.10;10.27;;;;;;;;;;10400620;28;20037;-78
2023/05/08 13:36:55;;;;;;;15.43;8.45;;;;;;;;;;10398336;28;20048;-78
2023/05/08 13:41:59;;;;;;;19.55;9.40;;;;;;;;;;10401217;28;20068;-79
2023/05/08 13:47:02;;;;;;;16.25;8.60;;;;;;;;;;10396222;28;20497;-79
2023/05/08 13:52:05;;;;;;;14.32;7.95;;;;;;;;;;10375718;28;20534;-78
2023/05/08 13:57:09;;;;;;;14.73;8.10;;;;;;;;;;10400012;28;20075;-77
2023/05/08 14:02:12;;;;;;;17.10;7.53;;;;;;;;;;10399379;28;20045;-78
2023/05/08 14:07:17;;;;;;;10.38;6.15;;;;;;;;;;10396441;28;20092;-79
2023/05/08 14:12:21;;;;;;;13.55;7.10;;;;;;;;;;10394757;28;20148;-78
2023/05/08 14:17:23;;;;;;;11.30;6.80;;;;;;;;;;10379566;28;20048;-77
2023/05/08 14:22:26;;;;;;;16.00;8.75;;;;;;;;;;10399270;28;20423;-78
2023/05/08 14:27:30;;;;;;;15.35;8.60;;;;;;;;;;10388667;28;20048;-77
2023/05/08 14:32:33;;;;;;;13.02;7.35;;;;;;;;;;10396359;28;20033;-79
2023/05/08 14:37:36;;;;;;;14.82;8.20;;;;;;;;;;10394575;28;20132;-78
2023/05/08 14:42:40;;;;;;;17.10;8.15;;;;;;;;;;10396388;28;20107;-79
2023/05/08 14:47:43;;;;;;;19.55;8.68;;;;;;;;;;10396443;28;20494;-78
2023/05/08 14:52:45;;;;;;;20.27;9.80;;;;;;;;;;10391937;28;20497;-77
2023/05/08 14:57:50;;;;;;;17.20;9.25;;;;;;;;;;10394250;28;20592;-78
2023/05/08 15:02:52;;;;;;;15.82;8.15;;;;;;;;;;10400179;28;20064;-79
2023/05/08 15:07:56;;;;;;;16.02;8.40;;;;;;;;;;10386935;28;20037;-79
2023/05/08 15:13:00;;;;;;;16.60;8.45;;;;;;;;;;10397309;28;20188;-77
2023/05/08 15:18:03;;;;;;;13.20;6.85;;;;;;;;;;10398290;28;20406;-78
2023/05/08 15:23:06;;;;;;;15.75;7.40;;;;;;;;;;10395869;28;20383;-78
2023/05/08 15:28:10;;;;;;;14.68;7.40;;;;;;;;;;10399757;28;20569;-78
2023/05/08 15:33:12;;;;;;;14.75;7.15;;;;;;;;;;10409809;28;20112;-77
2023/05/08 15:38:15;;;;;;;17.27;8.10;;;;;;;;;;10393399;28;20046;-79
2023/05/08 15:43:19;;;;;;;23.13;8.15;;;;;;;;;;10404255;28;20124;-78
2023/05/08 15:48:22;;;;;;;16.50;8.05;;;;;;;;;;10407110;28;20052;-78
2023/05/08 15:53:25;;;;;;;14.18;7.72;;;;;;;;;;10404354;28;20060;-78
2023/05/08 15:58:28;;;;;;;;;;;;;;;;;;10403279;28;20045;-78
2023/05/08 16:03:33;;;;;;;18.33;7.60;;;;;;;;;;10404601;28;19921;-77
2023/05/08 16:08:36;;;;;;;18.48;8.48;;;;;;;;;;10406954;28;20049;-76
2023/05/08 16:13:38;;;;;;;15.57;7.32;;;;;;;;;;10404795;28;20498;-79
2023/05/08 16:18:47;;;;;;;17.45;8.15;;;;;;;;;;10403498;28;20045;-79
2023/05/08 16:23:51;;;;;;;15.68;7.60;;;;;;;;;;10398275;28;20730;-78
2023/05/08 16:28:54;;;;;;;;;;;;;;;;;;10404323;28;20073;-77
2023/05/08 16:33:58;;;;;;;15.75;6.45;;;;;;;;;;10398524;28;20254;-79
2023/05/08 16:39:01;;;;;;;13.98;5.88;;;;;;;;;;10388238;28;20046;-77
2023/05/08 16:44:04;;;;;;;18.42;9.10;;;;;;;;;;10399967;28;20057;-79
2023/05/08 16:49:09;;;;;;;16.25;7.82;;;;;;;;;;10404475;28;20137;-78
2023/05/08 16:54:13;;;;;;;16.35;7.95;;;;;;;;;;10390477;28;20117;-79
2023/05/08 16:59:16;;;;;;;11.82;6.20;;;;;;;;;;10389470;28;20095;-77
2023/05/08 17:04:20;;;;;;;16.20;8.43;;;;;;;;;;10401256;28;20033;-78
2023/05/08 17:09:24;;;;;;;17.35;8.00;;;;;;;;;;10398347;28;20069;-78
2023/05/08 17:14:26;;;;;;;14.07;6.13;;;;;;;;;;10401341;28;20033;-80
2023/05/08 17:19:30;;;;;;;14.70;5.73;;;;;;;;;;10399764;28;20045;-80
2023/05/08 17:24:35;;;;;;;14.93;6.95;;;;;;;;;;10394499;28;20455;-79
2023/05/08 17:29:37;;;;;;;19.25;8.00;;;;;;;;;;10399336;28;20116;-79
2023/05/08 17:34:42;;;;;;;16.80;6.80;;;;;;;;;;10394755;28;20204;-78
2023/05/08 17:39:45;;;;;;;16.25;7.78;;;;;;;;;;10402370;28;20049;-78
2023/05/08 17:44:48;;;;;;;;;;;;;;;;;;10392742;28;20104;-77
2023/05/08 17:49:52;;;;;;;17.15;7.00;;;;;;;;;;10411267;28;20025;-78
2023/05/08 17:54:55;;;;;;;18.08;8.73;;;;;;;;;;10400514;28;20481;-77
2023/05/08 17:59:58;;;;;;;17.70;7.90;;;;;;;;;;10404304;28;20056;-76
2023/05/08 18:05:02;;;;;;;17.80;7.82;;;;;;;;;;10407055;28;20034;-77
2023/05/08 18:10:06;;;;;;;18.60;7.68;;;;;;;;;;10414470;28;20079;-75
2023/05/08 18:15:09;;;;;;;19.73;7.90;;;;;;;;;;10402672;28;20030;-80
2023/05/08 18:20:13;;;;;;;18.85;8.38;;;;;;;;;;10411202;28;20072;-76
2023/05/08 18:25:16;;;;;;;17.20;7.88;;;;;;;;;;10402183;28;20513;-76
2023/05/08 18:30:20;;;;;;;17.23;7.95;;;;;;;;;;10399086;28;20077;-78
2023/05/08 18:35:24;;;;;;;19.42;8.55;;;;;;;;;;10398597;28;20056;-77
2023/05/08 18:40:27;;;;;;;20.67;8.85;;;;;;;;;;10401791;28;20071;-76
2023/05/08 18:45:31;;;;;;;20.50;9.15;;;;;;;;;;10404137;28;20041;-76
2023/05/08 18:50:36;;;;;;;19.92;8.80;;;;;;;;;;10407654;28;20036;-78
2023/05/08 18:55:40;;;;;;;19.60;7.63;;;;;;;;;;10402725;28;20690;-78
2023/05/08 19:00:43;;;;;;;;;;;;;;;;;;10403287;28;20151;-77
2023/05/08 19:05:47;;;;;;;16.27;6.18;;;;;;;;;;10405420;28;19934;-80
2023/05/08 19:10:51;;;;;;;18.58;8.57;;;;;;;;;;10409675;28;20068;-78
2023/05/08 19:15:54;;;;;;;19.98;8.15;;;;;;;;;;10412370;28;20406;-77
2023/05/08 19:20:58;;;;;;;21.25;8.80;;;;;;;;;;10413986;28;20052;-76
2023/05/08 19:26:01;;;;;;;19.35;7.40;;;;;;;;;;10406091;28;20046;-77
2023/05/08 19:31:04;;;;;;;21.30;9.50;;;;;;;;;;10409542;28;20038;-76
2023/05/08 19:36:08;;;;;;;18.90;7.93;;;;;;;;;;10406796;28;20045;-77
2023/05/08 19:41:12;;;;;;;12.68;4.90;;;;;;;;;;10420532;28;20049;-77
2023/05/08 19:46:16;;;;;;;20.73;8.70;;;;;;;;;;10403945;28;20060;-77
2023/05/08 19:51:20;;;;;;;22.25;9.15;;;;;;;;;;10408474;28;20060;-78
2023/05/08 19:56:23;;;;;;;21.77;9.18;;;;;;;;;;10401829;28;20042;-78
2023/05/08 20:01:26;;;;;;;21.97;8.77;;;;;;;;;;10418862;28;20037;-75
2023/05/08 20:06:31;;;;;;;18.48;5.70;;;;;;;;;;10413019;28;20040;-77
2023/05/08 20:11:34;;;;;;;19.45;8.52;;;;;;;;;;10403874;28;20041;-75
2023/05/08 20:16:37;;;;;;;18.08;7.95;;;;;;;;;;10412032;28;20124;-75
2023/05/08 20:21:42;;;;;;;20.73;9.57;;;;;;;;;;10415034;28;20482;-75
2023/05/08 20:26:45;;;;;;;21.00;8.30;;;;;;;;;;10413736;28;20050;-76
2023/05/08 20:31:48;;;;;;;21.40;9.13;;;;;;;;;;10415375;28;20060;-76
2023/05/08 20:36:56;;;;;;;21.73;9.50;;;;;;;;;;10408365;28;20049;-77
2023/05/08 20:41:59;;;;;;;20.60;9.05;;;;;;;;;;10415529;28;20057;-76
2023/05/08 20:47:02;;;;;;;20.90;9.10;;;;;;;;;;10403502;28;20029;-75
2023/05/08 20:52:06;;;;;;;21.98;8.70;;;;;;;;;;10399717;28;20040;-75
2023/05/08 20:57:11;;;;;;;23.08;9.32;;;;;;;;;;10402782;28;20120;-75
2023/05/08 21:02:14;;;;;;;21.45;8.93;;;;;;;;;;10402282;28;20111;-76
2023/05/08 21:07:18;;;;;;;22.60;9.07;;;;;;;;;;10402426;28;20054;-76
2023/05/08 21:12:21;;;;;;;22.48;9.50;;;;;;;;;;10399318;28;20103;-76
2023/05/08 21:17:24;;;;;;;25.87;10.00;;;;;;;;;;10402770;28;20033;-76
2023/05/08 21:22:28;;;;;;;21.73;8.73;;;;;;;;;;10401005;28;20042;-75
2023/05/08 21:27:31;;;;;;;20.17;9.10;;;;;;;;;;10400636;28;20046;-76
2023/05/08 21:32:33;;;;;;;21.20;8.65;;;;;;;;;;10400620;28;20473;-76
2023/05/08 21:37:37;;;;;;;24.75;9.13;;;;;;;;;;10397751;28;20038;-75
2023/05/08 21:42:41;;;;;;;20.25;9.02;;;;;;;;;;10400145;28;20064;-74
2023/05/08 21:47:43;;;;;;;22.65;8.40;;;;;;;;;;10399237;28;20041;-75
2023/05/08 21:52:48;;;;;;;19.73;8.53;;;;;;;;;;10396306;28;20555;-75
2023/05/08 21:57:50;;;;;;;;;;;;;;;;;;10396729;28;20061;-75
2023/05/08 22:02:53;;;;;;;19.35;7.75;;;;;;;;;;10399040;28;20382;-76
2023/05/08 22:07:57;;;;;;;20.25;8.65;;;;;;;;;;10398948;28;20748;-79
2023/05/08 22:13:00;;;;;;;;;;;;;;;;;;10399439;28;20417;-74
2023/05/08 22:18:02;;;;;;;19.05;8.70;;;;;;;;;;10403628;28;19964;-77
2023/05/08 22:23:07;;;;;;;12.73;5.13;;;;;;;;;;10403404;28;20041;-77
2023/05/08 22:28:09;;;;;;;;;;;;;;;;;;10401325;28;20049;-75
2023/05/08 22:33:12;;;;;;;21.50;7.50;;;;;;;;;;10395253;28;19929;-77
2023/05/08 22:38:16;;;;;;;16.05;7.35;;;;;;;;;;10396364;28;20052;-77
2023/05/08 22:43:19;;;;;;;19.67;8.20;;;;;;;;;;10395292;28;20497;-75
2023/05/08 22:48:22;;;;;;;19.48;7.95;;;;;;;;;;10396039;28;20075;-74
2023/05/08 22:53:25;;;;;;;18.55;7.57;;;;;;;;;;10397322;28;20111;-74
2023/05/08 22:58:28;;;;;;;13.73;4.82;;;;;;;;;;10397706;28;20370;-76
2023/05/08 23:03:31;;;;;;;14.95;6.80;;;;;;;;;;10397873;28;20099;-76
2023/05/08 23:08:36;;;;;;;18.93;7.30;;;;;;;;;;10394010;28;20040;-77
2023/05/08 23:13:38;;;;;;;;;;;;;;;;;;10393398;28;20370;-76
2023/05/08 23:18:41;;;;;;;13.45;6.00;;;;;;;;;;10397230;28;20076;-76
2023/05/08 23:23:45;;;;;;;19.98;7.60;;;;;;;;;;10396464;28;20052;-77
2023/05/08 23:28:49;;;;;;;20.92;7.82;;;;;;;;;;10392332;28;20087;-75
2023/05/08 23:33:52;;;;;;;17.98;7.93;;;;;;;;;;10399350;28;20041;-75
2023/05/08 23:38:56;;;;;;;17.50;7.13;;;;;;;;;;10396256;28;20441;-75
2023/05/08 23:43:58;;;;;;;;;;;;;;;;;;10398812;28;20513;-74
2023/05/08 23:49:04;;;;;;;17.75;6.97;;;;;;;;;;10404156;28;19930;-74
2023/05/08 23:54:08;;;;;;;16.50;6.95;;;;;;;;;;10406017;28;20059;-74
2023/05/08 23:59:11;;;;;;;16.05;6.85;;;;;;;;;;10406198;28;20053;-74
